sensor_id;sensor_type;location;lat;lon;timestamp;temperature;humidity
30174;DHT22;16985;50.814;8.530;2023-07-28T00:00:22;17.00;99.90
30174;DHT22;16985;50.814;8.530;2023-07-28T00:02:47;17.00;99.90
30174;DHT22;16985;50.814;8.530;2023-07-28T00:05:13;17.00;99.90
30174;DHT22;16985;50.814;8.530;2023-07-28T00:07:39;17.00;99.90
30174;DHT22;16985;50.814;8.530;2023-07-28T00:10:05;16.90;99.90
30174;DHT22;16985;50.814;8.530;2023-07-28T00:12:31;16.90;99.90
30174;DHT22;16985;50.814;8.530;2023-07-28T00:14:57;16.90;99.90
30174;DHT22;16985;50.814;8.530;2023-07-28T00:17:24;16.90;99.90
30174;DHT22;16985;50.814;8.530;2023-07-28T00:19:50;16.90;99.90
30174;DHT22;16985;50.814;8.530;2023-07-28T00:22:16;16.90;99.90
30174;DHT22;16985;50.814;8.530;2023-07-28T00:24:42;17.00;99.90
30174;DHT22;16985;50.814;8.530;2023-07-28T00:27:07;16.90;99.90
30174;DHT22;16985;50.814;8.530;2023-07-28T00:29:33;16.90;99.90
30174;DHT22;16985;50.814;8.530;2023-07-28T00:32:01;16.90;99.90
30174;DHT22;16985;50.814;8.530;2023-07-28T00:34:27;16.90;99.90
30174;DHT22;16985;50.814;8.530;2023-07-28T00:36:53;16.90;99.90
30174;DHT22;16985;50.814;8.530;2023-07-28T00:39:19;16.80;99.90
30174;DHT22;16985;50.814;8.530;2023-07-28T00:41:45;16.90;99.90
30174;DHT22;16985;50.814;8.530;2023-07-28T00:44:11;16.90;99.90
30174;DHT22;16985;50.814;8.530;2023-07-28T00:46:37;16.80;99.90
30174;DHT22;16985;50.814;8.530;2023-07-28T00:49:02;16.90;99.90
30174;DHT22;16985;50.814;8.530;2023-07-28T00:51:31;16.90;99.90
30174;DHT22;16985;50.814;8.530;2023-07-28T00:53:57;16.80;99.90
30174;DHT22;16985;50.814;8.530;2023-07-28T00:56:25;16.80;99.90
30174;DHT22;16985;50.814;8.530;2023-07-28T00:58:51;16.90;99.90
30174;DHT22;16985;50.814;8.530;2023-07-28T01:01:17;16.80;99.90
30174;DHT22;16985;50.814;8.530;2023-07-28T01:03:43;16.80;99.90
30174;DHT22;16985;50.814;8.530;2023-07-28T01:06:11;16.80;99.90
30174;DHT22;16985;50.814;8.530;2023-07-28T01:11:22;16.80;99.90
30174;DHT22;16985;50.814;8.530;2023-07-28T01:13:48;16.80;99.90
30174;DHT22;16985;50.814;8.530;2023-07-28T01:16:14;16.70;99.90
30174;DHT22;16985;50.814;8.530;2023-07-28T01:18:40;16.70;99.90
30174;DHT22;16985;50.814;8.530;2023-07-28T01:21:09;16.70;99.90
30174;DHT22;16985;50.814;8.530;2023-07-28T01:24:01;16.70;99.90
30174;DHT22;16985;50.814;8.530;2023-07-28T01:26:36;16.70;99.90
30174;DHT22;16985;50.814;8.530;2023-07-28T01:29:03;16.70;99.90
30174;DHT22;16985;50.814;8.530;2023-07-28T01:31:30;16.70;99.90
30174;DHT22;16985;50.814;8.530;2023-07-28T01:33:56;16.80;99.90
30174;DHT22;16985;50.814;8.530;2023-07-28T01:36:21;16.70;99.90
30174;DHT22;16985;50.814;8.530;2023-07-28T01:38:47;16.70;99.90
30174;DHT22;16985;50.814;8.530;2023-07-28T01:41:13;16.70;99.90
30174;DHT22;16985;50.814;8.530;2023-07-28T01:43:39;16.60;99.90
30174;DHT22;16985;50.814;8.530;2023-07-28T01:46:05;16.70;99.90
30174;DHT22;16985;50.814;8.530;2023-07-28T01:48:31;16.70;99.90
30174;DHT22;16985;50.814;8.530;2023-07-28T01:50:56;16.70;99.90
30174;DHT22;16985;50.814;8.530;2023-07-28T01:53:22;16.70;99.90
30174;DHT22;16985;50.814;8.530;2023-07-28T01:55:48;16.70;99.90
30174;DHT22;16985;50.814;8.530;2023-07-28T01:58:14;16.70;99.90
30174;DHT22;16985;50.814;8.530;2023-07-28T02:00:39;16.70;99.90
30174;DHT22;16985;50.814;8.530;2023-07-28T02:03:05;16.70;99.90
30174;DHT22;16985;50.814;8.530;2023-07-28T02:05:32;16.70;99.90
30174;DHT22;16985;50.814;8.530;2023-07-28T02:07:58;16.70;99.90
30174;DHT22;16985;50.814;8.530;2023-07-28T02:10:25;16.70;99.90
30174;DHT22;16985;50.814;8.530;2023-07-28T02:12:51;16.70;99.90
30174;DHT22;16985;50.814;8.530;2023-07-28T02:15:18;16.70;99.90
30174;DHT22;16985;50.814;8.530;2023-07-28T02:17:43;16.60;99.90
30174;DHT22;16985;50.814;8.530;2023-07-28T02:20:09;16.70;99.90
30174;DHT22;16985;50.814;8.530;2023-07-28T02:22:47;16.60;99.90
30174;DHT22;16985;50.814;8.530;2023-07-28T02:25:13;16.60;99.90
30174;DHT22;16985;50.814;8.530;2023-07-28T02:27:39;16.60;99.90
30174;DHT22;16985;50.814;8.530;2023-07-28T02:30:06;16.60;99.90
30174;DHT22;16985;50.814;8.530;2023-07-28T02:32:32;16.60;99.90
30174;DHT22;16985;50.814;8.530;2023-07-28T02:34:58;16.60;99.90
30174;DHT22;16985;50.814;8.530;2023-07-28T02:37:24;16.60;99.90
30174;DHT22;16985;50.814;8.530;2023-07-28T02:39:51;16.70;99.90
30174;DHT22;16985;50.814;8.530;2023-07-28T02:42:16;16.60;99.90
30174;DHT22;16985;50.814;8.530;2023-07-28T02:44:42;16.70;99.90
30174;DHT22;16985;50.814;8.530;2023-07-28T02:47:08;16.60;99.90
30174;DHT22;16985;50.814;8.530;2023-07-28T02:49:34;16.60;99.90
30174;DHT22;16985;50.814;8.530;2023-07-28T02:52:00;16.60;99.90
30174;DHT22;16985;50.814;8.530;2023-07-28T02:54:26;16.60;99.90
30174;DHT22;16985;50.814;8.530;2023-07-28T02:56:52;16.70;99.90
30174;DHT22;16985;50.814;8.530;2023-07-28T02:59:18;16.60;99.90
30174;DHT22;16985;50.814;8.530;2023-07-28T03:01:44;16.60;99.90
30174;DHT22;16985;50.814;8.530;2023-07-28T03:04:10;16.60;99.90
30174;DHT22;16985;50.814;8.530;2023-07-28T03:07:02;16.60;99.90
30174;DHT22;16985;50.814;8.530;2023-07-28T03:09:28;16.60;99.90
30174;DHT22;16985;50.814;8.530;2023-07-28T03:12:00;16.60;99.90
30174;DHT22;16985;50.814;8.530;2023-07-28T03:14:26;16.70;99.90
30174;DHT22;16985;50.814;8.530;2023-07-28T03:16:52;16.60;99.90
30174;DHT22;16985;50.814;8.530;2023-07-28T03:19:17;16.50;99.90
30174;DHT22;16985;50.814;8.530;2023-07-28T03:21:43;16.60;99.90
30174;DHT22;16985;50.814;8.530;2023-07-28T03:24:09;16.60;99.90
30174;DHT22;16985;50.814;8.530;2023-07-28T03:26:35;16.60;99.90
30174;DHT22;16985;50.814;8.530;2023-07-28T03:29:02;16.70;99.90
30174;DHT22;16985;50.814;8.530;2023-07-28T03:31:28;16.60;99.90
30174;DHT22;16985;50.814;8.530;2023-07-28T03:33:54;16.60;99.90
30174;DHT22;16985;50.814;8.530;2023-07-28T03:36:20;16.60;99.90
30174;DHT22;16985;50.814;8.530;2023-07-28T03:38:46;16.60;99.90
30174;DHT22;16985;50.814;8.530;2023-07-28T03:41:13;16.60;99.90
30174;DHT22;16985;50.814;8.530;2023-07-28T03:43:40;16.70;99.90
30174;DHT22;16985;50.814;8.530;2023-07-28T03:46:06;16.60;99.90
30174;DHT22;16985;50.814;8.530;2023-07-28T03:48:32;16.70;99.90
30174;DHT22;16985;50.814;8.530;2023-07-28T03:50:58;16.70;99.90
30174;DHT22;16985;50.814;8.530;2023-07-28T03:53:24;16.70;99.90
30174;DHT22;16985;50.814;8.530;2023-07-28T03:55:51;16.70;99.90
30174;DHT22;16985;50.814;8.530;2023-07-28T03:58:17;16.70;99.90
30174;DHT22;16985;50.814;8.530;2023-07-28T04:00:43;16.70;99.90
30174;DHT22;16985;50.814;8.530;2023-07-28T04:03:08;16.70;99.90
30174;DHT22;16985;50.814;8.530;2023-07-28T04:05:36;16.70;99.90
30174;DHT22;16985;50.814;8.530;2023-07-28T04:08:02;16.70;99.90
30174;DHT22;16985;50.814;8.530;2023-07-28T04:10:28;16.70;99.90
30174;DHT22;16985;50.814;8.530;2023-07-28T04:12:54;16.70;99.90
30174;DHT22;16985;50.814;8.530;2023-07-28T04:15:20;16.70;99.90
30174;DHT22;16985;50.814;8.530;2023-07-28T04:17:45;16.70;99.90
30174;DHT22;16985;50.814;8.530;2023-07-28T04:20:11;16.70;99.90
30174;DHT22;16985;50.814;8.530;2023-07-28T04:22:37;16.70;99.90
30174;DHT22;16985;50.814;8.530;2023-07-28T04:25:03;16.70;99.90
30174;DHT22;16985;50.814;8.530;2023-07-28T04:27:30;16.70;99.90
30174;DHT22;16985;50.814;8.530;2023-07-28T04:30:00;16.70;99.90
30174;DHT22;16985;50.814;8.530;2023-07-28T04:32:25;16.70;99.90
30174;DHT22;16985;50.814;8.530;2023-07-28T04:34:53;16.70;99.90
30174;DHT22;16985;50.814;8.530;2023-07-28T04:37:40;16.70;99.90
30174;DHT22;16985;50.814;8.530;2023-07-28T04:40:07;16.80;99.90
30174;DHT22;16985;50.814;8.530;2023-07-28T04:42:36;16.80;99.90
30174;DHT22;16985;50.814;8.530;2023-07-28T04:45:03;16.80;99.90
30174;DHT22;16985;50.814;8.530;2023-07-28T04:47:31;16.80;99.90
30174;DHT22;16985;50.814;8.530;2023-07-28T04:49:56;16.70;99.90
30174;DHT22;16985;50.814;8.530;2023-07-28T04:52:42;16.80;99.90
30174;DHT22;16985;50.814;8.530;2023-07-28T04:55:29;16.80;99.90
30174;DHT22;16985;50.814;8.530;2023-07-28T04:57:55;16.90;99.90
30174;DHT22;16985;50.814;8.530;2023-07-28T05:00:23;16.80;99.90
30174;DHT22;16985;50.814;8.530;2023-07-28T05:02:49;16.90;99.90
30174;DHT22;16985;50.814;8.530;2023-07-28T05:05:15;16.90;99.90
30174;DHT22;16985;50.814;8.530;2023-07-28T05:07:41;16.90;99.90
30174;DHT22;16985;50.814;8.530;2023-07-28T05:10:11;17.00;99.90
30174;DHT22;16985;50.814;8.530;2023-07-28T05:12:37;16.90;99.90
30174;DHT22;16985;50.814;8.530;2023-07-28T05:15:04;16.90;99.90
30174;DHT22;16985;50.814;8.530;2023-07-28T05:17:31;16.90;99.90
30174;DHT22;16985;50.814;8.530;2023-07-28T05:20:15;17.10;99.90
30174;DHT22;16985;50.814;8.530;2023-07-28T05:23:04;17.00;99.90
30174;DHT22;16985;50.814;8.530;2023-07-28T05:25:30;17.00;99.90
30174;DHT22;16985;50.814;8.530;2023-07-28T05:27:56;17.00;99.90
30174;DHT22;16985;50.814;8.530;2023-07-28T05:30:22;17.00;99.90
30174;DHT22;16985;50.814;8.530;2023-07-28T05:32:48;17.10;99.90
30174;DHT22;16985;50.814;8.530;2023-07-28T05:35:24;17.10;99.90
30174;DHT22;16985;50.814;8.530;2023-07-28T05:37:50;17.20;99.90
30174;DHT22;16985;50.814;8.530;2023-07-28T05:40:15;17.20;99.90
30174;DHT22;16985;50.814;8.530;2023-07-28T05:42:41;17.30;99.90
30174;DHT22;16985;50.814;8.530;2023-07-28T05:45:08;17.30;99.90
30174;DHT22;16985;50.814;8.530;2023-07-28T05:47:34;17.30;99.90
30174;DHT22;16985;50.814;8.530;2023-07-28T05:50:00;17.30;99.90
30174;DHT22;16985;50.814;8.530;2023-07-28T05:52:26;17.30;99.90
30174;DHT22;16985;50.814;8.530;2023-07-28T05:54:52;17.40;99.90
30174;DHT22;16985;50.814;8.530;2023-07-28T05:57:19;17.40;99.90
30174;DHT22;16985;50.814;8.530;2023-07-28T05:59:48;17.50;99.90
30174;DHT22;16985;50.814;8.530;2023-07-28T06:02:14;17.50;99.90
30174;DHT22;16985;50.814;8.530;2023-07-28T06:04:46;17.40;99.90
30174;DHT22;16985;50.814;8.530;2023-07-28T06:07:12;17.50;99.90
30174;DHT22;16985;50.814;8.530;2023-07-28T06:09:38;17.50;99.90
30174;DHT22;16985;50.814;8.530;2023-07-28T06:12:04;17.50;99.90
30174;DHT22;16985;50.814;8.530;2023-07-28T06:14:31;17.60;99.90
30174;DHT22;16985;50.814;8.530;2023-07-28T06:16:57;17.60;99.90
30174;DHT22;16985;50.814;8.530;2023-07-28T06:19:27;17.60;99.90
30174;DHT22;16985;50.814;8.530;2023-07-28T06:21:53;17.70;99.90
30174;DHT22;16985;50.814;8.530;2023-07-28T06:24:20;17.70;99.90
30174;DHT22;16985;50.814;8.530;2023-07-28T06:26:46;17.70;99.90
30174;DHT22;16985;50.814;8.530;2023-07-28T06:29:12;17.70;99.90
30174;DHT22;16985;50.814;8.530;2023-07-28T06:31:38;17.80;99.90
30174;DHT22;16985;50.814;8.530;2023-07-28T06:34:04;17.80;99.90
30174;DHT22;16985;50.814;8.530;2023-07-28T06:36:30;17.80;99.90
30174;DHT22;16985;50.814;8.530;2023-07-28T06:38:55;17.80;99.90
30174;DHT22;16985;50.814;8.530;2023-07-28T06:41:22;17.80;99.90
30174;DHT22;16985;50.814;8.530;2023-07-28T06:43:53;17.90;99.90
30174;DHT22;16985;50.814;8.530;2023-07-28T06:46:19;17.90;99.90
30174;DHT22;16985;50.814;8.530;2023-07-28T06:48:46;17.90;99.90
30174;DHT22;16985;50.814;8.530;2023-07-28T06:51:14;17.90;99.90
30174;DHT22;16985;50.814;8.530;2023-07-28T06:53:41;18.00;99.90
30174;DHT22;16985;50.814;8.530;2023-07-28T06:56:07;18.00;99.90
30174;DHT22;16985;50.814;8.530;2023-07-28T06:58:33;18.00;99.90
30174;DHT22;16985;50.814;8.530;2023-07-28T07:00:58;18.10;99.90
30174;DHT22;16985;50.814;8.530;2023-07-28T07:03:24;18.10;99.90
30174;DHT22;16985;50.814;8.530;2023-07-28T07:05:50;18.10;99.90
30174;DHT22;16985;50.814;8.530;2023-07-28T07:08:16;18.10;99.90
30174;DHT22;16985;50.814;8.530;2023-07-28T07:10:52;18.20;99.90
30174;DHT22;16985;50.814;8.530;2023-07-28T07:13:18;18.30;99.90
30174;DHT22;16985;50.814;8.530;2023-07-28T07:15:44;18.20;99.90
30174;DHT22;16985;50.814;8.530;2023-07-28T07:18:11;18.20;99.90
30174;DHT22;16985;50.814;8.530;2023-07-28T07:20:37;18.30;99.90
30174;DHT22;16985;50.814;8.530;2023-07-28T07:23:04;18.30;99.90
30174;DHT22;16985;50.814;8.530;2023-07-28T07:25:39;18.40;99.90
30174;DHT22;16985;50.814;8.530;2023-07-28T07:28:05;18.40;99.90
30174;DHT22;16985;50.814;8.530;2023-07-28T07:30:34;18.40;99.90
30174;DHT22;16985;50.814;8.530;2023-07-28T07:33:00;18.40;99.90
30174;DHT22;16985;50.814;8.530;2023-07-28T07:35:26;18.50;99.90
30174;DHT22;16985;50.814;8.530;2023-07-28T07:37:52;18.50;99.90
30174;DHT22;16985;50.814;8.530;2023-07-28T07:40:17;18.50;99.90
30174;DHT22;16985;50.814;8.530;2023-07-28T07:42:48;18.60;99.90
30174;DHT22;16985;50.814;8.530;2023-07-28T07:45:14;18.60;99.90
30174;DHT22;16985;50.814;8.530;2023-07-28T07:47:41;18.60;99.90
30174;DHT22;16985;50.814;8.530;2023-07-28T07:50:08;18.70;99.90
30174;DHT22;16985;50.814;8.530;2023-07-28T07:52:35;18.70;99.90
30174;DHT22;16985;50.814;8.530;2023-07-28T07:55:02;18.70;99.90
30174;DHT22;16985;50.814;8.530;2023-07-28T07:57:29;18.80;99.90
30174;DHT22;16985;50.814;8.530;2023-07-28T07:59:57;18.80;99.90
30174;DHT22;16985;50.814;8.530;2023-07-28T08:02:24;18.80;99.90
30174;DHT22;16985;50.814;8.530;2023-07-28T08:04:52;18.70;99.90
30174;DHT22;16985;50.814;8.530;2023-07-28T08:07:19;18.80;99.90
30174;DHT22;16985;50.814;8.530;2023-07-28T08:09:45;18.90;99.90
30174;DHT22;16985;50.814;8.530;2023-07-28T08:12:12;18.90;99.90
30174;DHT22;16985;50.814;8.530;2023-07-28T08:14:38;18.90;99.90
30174;DHT22;16985;50.814;8.530;2023-07-28T08:17:04;19.10;99.90
30174;DHT22;16985;50.814;8.530;2023-07-28T08:19:30;19.00;99.90
30174;DHT22;16985;50.814;8.530;2023-07-28T08:21:56;19.00;99.90
30174;DHT22;16985;50.814;8.530;2023-07-28T08:24:22;19.00;99.90
30174;DHT22;16985;50.814;8.530;2023-07-28T08:26:48;19.10;99.90
30174;DHT22;16985;50.814;8.530;2023-07-28T08:29:15;19.10;99.90
30174;DHT22;16985;50.814;8.530;2023-07-28T08:31:41;19.10;99.90
30174;DHT22;16985;50.814;8.530;2023-07-28T08:34:07;19.20;99.90
30174;DHT22;16985;50.814;8.530;2023-07-28T08:36:34;19.20;99.90
30174;DHT22;16985;50.814;8.530;2023-07-28T08:39:00;19.30;99.90
30174;DHT22;16985;50.814;8.530;2023-07-28T08:41:25;19.40;99.90
30174;DHT22;16985;50.814;8.530;2023-07-28T08:43:53;19.40;99.90
30174;DHT22;16985;50.814;8.530;2023-07-28T08:46:20;19.50;99.90
30174;DHT22;16985;50.814;8.530;2023-07-28T08:48:46;19.50;99.90
30174;DHT22;16985;50.814;8.530;2023-07-28T08:51:13;19.50;99.90
30174;DHT22;16985;50.814;8.530;2023-07-28T08:53:39;19.60;99.90
30174;DHT22;16985;50.814;8.530;2023-07-28T08:56:06;19.70;99.90
30174;DHT22;16985;50.814;8.530;2023-07-28T08:58:32;19.70;99.90
30174;DHT22;16985;50.814;8.530;2023-07-28T09:00:59;19.80;99.90
30174;DHT22;16985;50.814;8.530;2023-07-28T09:03:28;19.90;99.90
30174;DHT22;16985;50.814;8.530;2023-07-28T09:06:01;20.00;99.90
30174;DHT22;16985;50.814;8.530;2023-07-28T09:08:30;20.10;99.90
30174;DHT22;16985;50.814;8.530;2023-07-28T09:10:56;20.10;99.90
30174;DHT22;16985;50.814;8.530;2023-07-28T09:13:22;20.20;99.90
30174;DHT22;16985;50.814;8.530;2023-07-28T09:15:47;20.30;99.90
30174;DHT22;16985;50.814;8.530;2023-07-28T09:18:16;20.30;99.90
30174;DHT22;16985;50.814;8.530;2023-07-28T09:20:43;20.40;99.90
30174;DHT22;16985;50.814;8.530;2023-07-28T09:23:10;20.40;99.90
30174;DHT22;16985;50.814;8.530;2023-07-28T09:25:37;20.40;99.90
30174;DHT22;16985;50.814;8.530;2023-07-28T09:28:04;20.40;99.90
30174;DHT22;16985;50.814;8.530;2023-07-28T09:30:48;20.40;99.90
30174;DHT22;16985;50.814;8.530;2023-07-28T09:33:30;20.50;99.90
30174;DHT22;16985;50.814;8.530;2023-07-28T09:35:57;20.50;99.90
30174;DHT22;16985;50.814;8.530;2023-07-28T09:38:39;20.50;99.90
30174;DHT22;16985;50.814;8.530;2023-07-28T09:41:07;20.50;99.90
30174;DHT22;16985;50.814;8.530;2023-07-28T09:43:40;20.60;99.90
30174;DHT22;16985;50.814;8.530;2023-07-28T09:46:09;20.60;99.90
30174;DHT22;16985;50.814;8.530;2023-07-28T09:48:39;20.60;99.90
30174;DHT22;16985;50.814;8.530;2023-07-28T09:51:16;20.60;99.90
30174;DHT22;16985;50.814;8.530;2023-07-28T09:53:49;20.70;99.90
30174;DHT22;16985;50.814;8.530;2023-07-28T09:56:20;20.80;99.90
30174;DHT22;16985;50.814;8.530;2023-07-28T09:58:52;20.80;99.90
30174;DHT22;16985;50.814;8.530;2023-07-28T10:01:21;20.90;99.90
30174;DHT22;16985;50.814;8.530;2023-07-28T10:03:49;21.00;99.90
30174;DHT22;16985;50.814;8.530;2023-07-28T10:06:16;21.10;99.90
30174;DHT22;16985;50.814;8.530;2023-07-28T10:08:43;21.20;99.90
30174;DHT22;16985;50.814;8.530;2023-07-28T10:11:14;21.20;99.90
30174;DHT22;16985;50.814;8.530;2023-07-28T10:13:42;21.30;99.90
30174;DHT22;16985;50.814;8.530;2023-07-28T10:16:09;21.30;99.90
30174;DHT22;16985;50.814;8.530;2023-07-28T10:18:36;21.40;99.90
30174;DHT22;16985;50.814;8.530;2023-07-28T10:21:07;21.30;99.90
30174;DHT22;16985;50.814;8.530;2023-07-28T10:23:35;21.30;99.90
30174;DHT22;16985;50.814;8.530;2023-07-28T10:26:04;21.30;99.90
30174;DHT22;16985;50.814;8.530;2023-07-28T10:28:39;21.40;99.90
30174;DHT22;16985;50.814;8.530;2023-07-28T10:31:10;21.30;99.90
30174;DHT22;16985;50.814;8.530;2023-07-28T10:33:44;21.30;99.90
30174;DHT22;16985;50.814;8.530;2023-07-28T10:41:26;21.40;99.90
30174;DHT22;16985;50.814;8.530;2023-07-28T10:43:52;21.40;99.90
30174;DHT22;16985;50.814;8.530;2023-07-28T10:46:20;21.40;99.90
30174;DHT22;16985;50.814;8.530;2023-07-28T10:48:49;21.40;99.90
30174;DHT22;16985;50.814;8.530;2023-07-28T10:51:25;21.40;99.90
30174;DHT22;16985;50.814;8.530;2023-07-28T10:53:58;21.50;99.90
30174;DHT22;16985;50.814;8.530;2023-07-28T10:56:25;21.50;99.90
30174;DHT22;16985;50.814;8.530;2023-07-28T10:58:58;21.50;99.90
30174;DHT22;16985;50.814;8.530;2023-07-28T11:01:39;21.40;99.90
30174;DHT22;16985;50.814;8.530;2023-07-28T11:04:17;21.40;99.90
30174;DHT22;16985;50.814;8.530;2023-07-28T11:06:45;21.40;99.90
30174;DHT22;16985;50.814;8.530;2023-07-28T11:09:14;21.50;99.90
30174;DHT22;16985;50.814;8.530;2023-07-28T11:11:42;21.50;99.90
30174;DHT22;16985;50.814;8.530;2023-07-28T11:14:09;21.50;99.90
30174;DHT22;16985;50.814;8.530;2023-07-28T11:16:37;21.60;99.90
30174;DHT22;16985;50.814;8.530;2023-07-28T11:19:11;21.60;99.90
30174;DHT22;16985;50.814;8.530;2023-07-28T11:21:42;21.70;99.90
30174;DHT22;16985;50.814;8.530;2023-07-28T11:24:11;21.70;99.90
30174;DHT22;16985;50.814;8.530;2023-07-28T11:26:44;21.80;99.90
30174;DHT22;16985;50.814;8.530;2023-07-28T11:29:11;21.80;99.90
30174;DHT22;16985;50.814;8.530;2023-07-28T11:31:37;21.90;99.90
30174;DHT22;16985;50.814;8.530;2023-07-28T11:34:15;21.90;99.90
30174;DHT22;16985;50.814;8.530;2023-07-28T11:36:42;21.90;99.90
30174;DHT22;16985;50.814;8.530;2023-07-28T11:39:08;22.00;99.90
30174;DHT22;16985;50.814;8.530;2023-07-28T11:41:36;22.10;99.90
30174;DHT22;16985;50.814;8.530;2023-07-28T11:44:02;22.20;99.90
30174;DHT22;16985;50.814;8.530;2023-07-28T11:49:15;22.30;99.90
30174;DHT22;16985;50.814;8.530;2023-07-28T11:51:49;22.40;99.90
30174;DHT22;16985;50.814;8.530;2023-07-28T11:54:18;22.50;99.90
30174;DHT22;16985;50.814;8.530;2023-07-28T11:56:48;22.60;99.90
30174;DHT22;16985;50.814;8.530;2023-07-28T11:59:19;22.70;99.90
30174;DHT22;16985;50.814;8.530;2023-07-28T12:04:24;22.80;99.90
30174;DHT22;16985;50.814;8.530;2023-07-28T12:07:13;22.90;99.90
30174;DHT22;16985;50.814;8.530;2023-07-28T12:12:26;22.90;99.90
30174;DHT22;16985;50.814;8.530;2023-07-28T12:14:57;22.90;99.90
30174;DHT22;16985;50.814;8.530;2023-07-28T12:17:30;22.90;99.90
30174;DHT22;16985;50.814;8.530;2023-07-28T12:20:02;23.00;99.90
30174;DHT22;16985;50.814;8.530;2023-07-28T12:22:39;23.00;99.90
30174;DHT22;16985;50.814;8.530;2023-07-28T12:25:06;23.00;99.90
30174;DHT22;16985;50.814;8.530;2023-07-28T12:27:33;23.00;99.90
30174;DHT22;16985;50.814;8.530;2023-07-28T12:29:59;23.00;99.90
30174;DHT22;16985;50.814;8.530;2023-07-28T12:32:25;23.10;99.90
30174;DHT22;16985;50.814;8.530;2023-07-28T12:34:51;23.10;99.90
30174;DHT22;16985;50.814;8.530;2023-07-28T12:37:17;23.20;99.90
30174;DHT22;16985;50.814;8.530;2023-07-28T12:39:43;23.30;99.80
30174;DHT22;16985;50.814;8.530;2023-07-28T12:42:10;23.30;99.50
30174;DHT22;16985;50.814;8.530;2023-07-28T12:44:37;23.40;99.10
30174;DHT22;16985;50.814;8.530;2023-07-28T12:47:04;23.30;97.50
30174;DHT22;16985;50.814;8.530;2023-07-28T12:49:30;23.30;96.90
30174;DHT22;16985;50.814;8.530;2023-07-28T12:51:58;23.20;97.10
30174;DHT22;16985;50.814;8.530;2023-07-28T12:54:25;23.20;97.10
30174;DHT22;16985;50.814;8.530;2023-07-28T12:56:53;23.20;97.50
30174;DHT22;16985;50.814;8.530;2023-07-28T12:59:19;23.20;98.20
30174;DHT22;16985;50.814;8.530;2023-07-28T13:01:45;23.20;99.10
30174;DHT22;16985;50.814;8.530;2023-07-28T13:04:11;23.10;99.50
30174;DHT22;16985;50.814;8.530;2023-07-28T13:06:37;23.10;99.80
30174;DHT22;16985;50.814;8.530;2023-07-28T13:09:03;23.10;99.90
30174;DHT22;16985;50.814;8.530;2023-07-28T13:11:30;23.20;99.90
30174;DHT22;16985;50.814;8.530;2023-07-28T13:13:55;23.20;99.90
30174;DHT22;16985;50.814;8.530;2023-07-28T13:16:21;23.20;99.90
30174;DHT22;16985;50.814;8.530;2023-07-28T13:18:47;23.20;99.90
30174;DHT22;16985;50.814;8.530;2023-07-28T13:21:13;23.20;99.90
30174;DHT22;16985;50.814;8.530;2023-07-28T13:23:39;23.20;99.90
30174;DHT22;16985;50.814;8.530;2023-07-28T13:26:06;23.20;99.80
30174;DHT22;16985;50.814;8.530;2023-07-28T13:28:32;23.20;99.70
30174;DHT22;16985;50.814;8.530;2023-07-28T13:31:00;23.20;99.90
30174;DHT22;16985;50.814;8.530;2023-07-28T13:33:27;23.20;99.90
30174;DHT22;16985;50.814;8.530;2023-07-28T13:35:53;23.10;99.90
30174;DHT22;16985;50.814;8.530;2023-07-28T13:38:19;23.10;99.90
30174;DHT22;16985;50.814;8.530;2023-07-28T13:40:44;23.00;99.90
30174;DHT22;16985;50.814;8.530;2023-07-28T13:43:10;22.90;99.90
30174;DHT22;16985;50.814;8.530;2023-07-28T13:45:36;22.80;99.90
30174;DHT22;16985;50.814;8.530;2023-07-28T13:48:03;22.80;99.90
30174;DHT22;16985;50.814;8.530;2023-07-28T13:50:29;22.60;99.90
30174;DHT22;16985;50.814;8.530;2023-07-28T13:52:54;22.80;99.90
30174;DHT22;16985;50.814;8.530;2023-07-28T13:55:20;22.80;99.90
30174;DHT22;16985;50.814;8.530;2023-07-28T13:57:46;22.80;99.90
30174;DHT22;16985;50.814;8.530;2023-07-28T14:00:12;22.80;99.90
30174;DHT22;16985;50.814;8.530;2023-07-28T14:02:39;22.80;99.90
30174;DHT22;16985;50.814;8.530;2023-07-28T14:05:06;22.90;99.90
30174;DHT22;16985;50.814;8.530;2023-07-28T14:07:33;22.80;99.90
30174;DHT22;16985;50.814;8.530;2023-07-28T14:10:01;22.80;99.90
30174;DHT22;16985;50.814;8.530;2023-07-28T14:12:27;22.70;99.90
30174;DHT22;16985;50.814;8.530;2023-07-28T14:14:52;22.60;99.90
30174;DHT22;16985;50.814;8.530;2023-07-28T14:17:18;22.60;99.90
30174;DHT22;16985;50.814;8.530;2023-07-28T14:19:44;22.50;99.90
30174;DHT22;16985;50.814;8.530;2023-07-28T14:22:10;22.40;99.90
30174;DHT22;16985;50.814;8.530;2023-07-28T14:24:36;22.40;99.90
30174;DHT22;16985;50.814;8.530;2023-07-28T14:27:02;22.40;99.90
30174;DHT22;16985;50.814;8.530;2023-07-28T14:29:28;22.30;99.90
30174;DHT22;16985;50.814;8.530;2023-07-28T14:31:54;22.30;99.90
30174;DHT22;16985;50.814;8.530;2023-07-28T14:34:20;22.10;99.90
30174;DHT22;16985;50.814;8.530;2023-07-28T14:36:46;22.10;99.90
30174;DHT22;16985;50.814;8.530;2023-07-28T14:39:12;22.10;99.90
30174;DHT22;16985;50.814;8.530;2023-07-28T14:41:37;21.90;99.90
30174;DHT22;16985;50.814;8.530;2023-07-28T14:44:03;21.90;99.90
30174;DHT22;16985;50.814;8.530;2023-07-28T14:46:29;21.80;99.90
30174;DHT22;16985;50.814;8.530;2023-07-28T14:48:55;21.80;99.90
30174;DHT22;16985;50.814;8.530;2023-07-28T14:51:21;21.70;99.90
30174;DHT22;16985;50.814;8.530;2023-07-28T14:53:48;21.70;99.90
30174;DHT22;16985;50.814;8.530;2023-07-28T14:56:15;21.60;99.90
30174;DHT22;16985;50.814;8.530;2023-07-28T14:58:42;21.40;99.90
30174;DHT22;16985;50.814;8.530;2023-07-28T15:01:09;21.20;99.90
30174;DHT22;16985;50.814;8.530;2023-07-28T15:03:36;21.20;99.90
30174;DHT22;16985;50.814;8.530;2023-07-28T15:06:03;21.20;99.90
30174;DHT22;16985;50.814;8.530;2023-07-28T15:08:30;21.10;99.90
30174;DHT22;16985;50.814;8.530;2023-07-28T15:10:57;21.10;99.90
30174;DHT22;16985;50.814;8.530;2023-07-28T15:13:23;21.10;99.90
30174;DHT22;16985;50.814;8.530;2023-07-28T15:15:49;21.00;99.90
30174;DHT22;16985;50.814;8.530;2023-07-28T15:18:15;21.00;99.90
30174;DHT22;16985;50.814;8.530;2023-07-28T15:20:42;21.00;99.90
30174;DHT22;16985;50.814;8.530;2023-07-28T15:23:08;21.10;99.90
30174;DHT22;16985;50.814;8.530;2023-07-28T15:25:35;21.10;99.90
30174;DHT22;16985;50.814;8.530;2023-07-28T15:28:03;21.00;99.90
30174;DHT22;16985;50.814;8.530;2023-07-28T15:30:29;21.00;99.90
30174;DHT22;16985;50.814;8.530;2023-07-28T15:32:55;21.00;99.90
30174;DHT22;16985;50.814;8.530;2023-07-28T15:35:22;21.00;99.90
30174;DHT22;16985;50.814;8.530;2023-07-28T15:37:48;21.00;99.90
30174;DHT22;16985;50.814;8.530;2023-07-28T15:40:13;21.10;99.90
30174;DHT22;16985;50.814;8.530;2023-07-28T15:42:39;21.10;99.90
30174;DHT22;16985;50.814;8.530;2023-07-28T15:45:06;21.10;99.90
30174;DHT22;16985;50.814;8.530;2023-07-28T15:47:32;21.20;99.90